Time;durP1;ratioP1;P1;durP2;ratioP2;P2;SDS_P1;SDS_P2;PMS_P1;PMS_P2;Temp;Humidity;BMP_temperature;BMP_pressure;BME280_temperature;BME280_humidity;BME280_pressure;Samples;Min_cycle;Max_cycle;Signal;HPM_P1;HPM_P2
2022/11/01 00:01:30;;;;;;;7.18;2.72;;;;;;;;;;5027726;28;20053;-64
2022/11/01 00:03:58;;;;;;;8.35;2.90;;;;;;;;;;5005521;28;20092;-64
2022/11/01 00:06:25;;;;;;;9.00;2.65;;;;;;;;;;5009034;28;20053;-64
2022/11/01 00:08:53;;;;;;;7.15;2.72;;;;;;;;;;5004754;28;20064;-64
2022/11/01 00:11:20;;;;;;;9.20;3.20;;;;;;;;;;5012304;28;20127;-64
2022/11/01 00:13:47;;;;;;;10.52;3.53;;;;;;;;;;5005969;28;20068;-64
2022/11/01 00:16:14;;;;;;;10.77;3.15;;;;;;;;;;5010828;28;20077;-64
2022/11/01 00:18:41;;;;;;;9.75;3.10;;;;;;;;;;5016491;28;20156;-64
2022/11/01 00:21:07;;;;;;;8.57;2.88;;;;;;;;;;5030902;28;20049;-64
2022/11/01 00:23:35;;;;;;;8.73;3.03;;;;;;;;;;5014430;28;20049;-64
2022/11/01 00:26:04;;;;;;;12.57;3.60;;;;;;;;;;5030541;28;20048;-64
2022/11/01 00:28:31;;;;;;;5.85;2.72;;;;;;;;;;5018303;28;20064;-64
2022/11/01 00:30:58;;;;;;;8.85;3.03;;;;;;;;;;5009960;28;20082;-64
2022/11/01 00:33:27;;;;;;;10.45;2.83;;;;;;;;;;5008266;28;20064;-65
2022/11/01 00:35:53;;;;;;;11.35;3.10;;;;;;;;;;5030368;28;20052;-64
2022/11/01 00:38:20;;;;;;;9.02;3.20;;;;;;;;;;5024647;28;20057;-63
2022/11/01 00:40:46;;;;;;;13.90;3.50;;;;;;;;;;5049492;28;20067;-63
2022/11/01 00:43:15;;;;;;;9.98;3.53;;;;;;;;;;5041137;28;20057;-63
2022/11/01 00:45:43;;;;;;;9.13;3.08;;;;;;;;;;5023394;28;20091;-63
2022/11/01 00:48:10;;;;;;;6.03;2.67;;;;;;;;;;5047194;28;20113;-64
2022/11/01 00:50:37;;;;;;;13.02;2.95;;;;;;;;;;5023600;28;20049;-63
2022/11/01 00:53:03;;;;;;;11.20;3.05;;;;;;;;;;5026378;28;20050;-63
2022/11/01 00:55:30;;;;;;;8.85;2.78;;;;;;;;;;5006207;28;20050;-64
2022/11/01 00:57:57;;;;;;;6.65;2.75;;;;;;;;;;5006846;28;20060;-64
2022/11/01 01:00:25;;;;;;;12.40;3.30;;;;;;;;;;5012025;28;20050;-64
2022/11/01 01:02:51;;;;;;;11.82;3.15;;;;;;;;;;5025709;28;20053;-64
2022/11/01 01:05:18;;;;;;;10.95;3.40;;;;;;;;;;5011659;28;20072;-64
2022/11/01 01:07:44;;;;;;;9.23;2.85;;;;;;;;;;5006836;28;20050;-64
2022/11/01 01:10:11;;;;;;;6.78;2.65;;;;;;;;;;5005086;28;20085;-64
2022/11/01 01:12:37;;;;;;;7.70;2.58;;;;;;;;;;5025563;28;20049;-64
2022/11/01 01:15:06;;;;;;;9.10;3.35;;;;;;;;;;5019262;28;20156;-64
2022/11/01 01:17:34;;;;;;;6.88;2.45;;;;;;;;;;5025303;28;20056;-64
2022/11/01 01:20:01;;;;;;;9.52;3.25;;;;;;;;;;5009584;28;20060;-64
2022/11/01 01:22:28;;;;;;;7.65;2.60;;;;;;;;;;5021745;28;20057;-64
2022/11/01 01:24:56;;;;;;;6.22;2.60;;;;;;;;;;5016357;28;20054;-64
2022/11/01 01:27:22;;;;;;;9.88;3.10;;;;;;;;;;5002185;28;20062;-64
2022/11/01 01:29:49;;;;;;;6.93;2.78;;;;;;;;;;5013777;28;20056;-64
2022/11/01 01:32:16;;;;;;;8.23;3.13;;;;;;;;;;5019916;28;20045;-64
2022/11/01 01:34:44;;;;;;;8.43;3.50;;;;;;;;;;5025548;28;20137;-64
2022/11/01 01:37:11;;;;;;;10.45;3.17;;;;;;;;;;5020095;28;20107;-64
2022/11/01 01:39:38;;;;;;;9.77;3.22;;;;;;;;;;5020239;28;20096;-64
2022/11/01 01:42:06;;;;;;;11.32;3.00;;;;;;;;;;5001401;28;20050;-64
2022/11/01 01:44:59;;;;;;;6.40;2.92;;;;;;;;;;5011033;28;20042;-64
2022/11/01 01:47:27;;;;;;;10.10;2.88;;;;;;;;;;5016326;28;20057;-64
2022/11/01 01:49:57;;;;;;;10.43;2.83;;;;;;;;;;5019590;28;20124;-64
2022/11/01 01:52:23;;;;;;;8.27;2.65;;;;;;;;;;5005457;28;20050;-64
2022/11/01 01:54:51;;;;;;;10.15;2.92;;;;;;;;;;5011100;28;20041;-64
2022/11/01 01:57:19;;;;;;;9.65;2.90;;;;;;;;;;5015249;28;20061;-64
2022/11/01 01:59:46;;;;;;;7.60;2.85;;;;;;;;;;5023294;28;20119;-64
2022/11/01 02:02:12;;;;;;;8.75;2.83;;;;;;;;;;5032751;28;20146;-64
2022/11/01 02:04:42;;;;;;;10.77;2.72;;;;;;;;;;5048029;28;20131;-64
2022/11/01 02:07:10;;;;;;;6.18;2.72;;;;;;;;;;5026158;28;20040;-64
2022/11/01 02:09:37;;;;;;;12.50;2.90;;;;;;;;;;5028376;28;20048;-64
2022/11/01 02:12:04;;;;;;;10.45;3.13;;;;;;;;;;5020480;28;20135;-64
2022/11/01 02:14:31;;;;;;;10.95;3.30;;;;;;;;;;5010430;28;20061;-64
2022/11/01 02:17:01;;;;;;;8.25;2.65;;;;;;;;;;5028566;28;20056;-64
2022/11/01 02:19:42;;;;;;;10.13;2.63;;;;;;;;;;5009118;28;20085;-64
2022/11/01 02:22:13;;;;;;;6.68;3.00;;;;;;;;;;5027318;28;20116;-64
2022/11/01 02:24:46;;;;;;;9.32;3.47;;;;;;;;;;5007324;28;20081;-64
2022/11/01 02:27:17;;;;;;;10.20;2.97;;;;;;;;;;5008677;28;20073;-64
2022/11/01 02:29:58;;;;;;;8.85;2.78;;;;;;;;;;5035699;28;20045;-64
2022/11/01 02:32:27;;;;;;;9.60;3.08;;;;;;;;;;5022307;28;20180;-64
2022/11/01 02:34:57;;;;;;;10.57;3.15;;;;;;;;;;5034880;28;20052;-64
2022/11/01 02:37:26;;;;;;;7.05;2.38;;;;;;;;;;5027292;28;20056;-64
2022/11/01 02:39:58;;;;;;;6.60;2.20;;;;;;;;;;5017528;28;20104;-64
2022/11/01 02:42:27;;;;;;;8.05;2.83;;;;;;;;;;5006250;28;20060;-64
2022/11/01 02:44:57;;;;;;;7.45;2.72;;;;;;;;;;5017370;28;20049;-66
2022/11/01 02:47:34;;;;;;;7.35;3.05;;;;;;;;;;5028193;28;20064;-63
2022/11/01 02:50:01;;;;;;;7.07;2.50;;;;;;;;;;5014080;28;20053;-64
2022/11/01 02:52:30;;;;;;;9.10;2.83;;;;;;;;;;5027154;28;20057;-64
2022/11/01 02:54:58;;;;;;;8.15;2.63;;;;;;;;;;5010634;28;20061;-64
2022/11/01 02:57:29;;;;;;;10.55;2.85;;;;;;;;;;5008920;28;20053;-64
2022/11/01 03:00:03;;;;;;;8.93;2.45;;;;;;;;;;5012950;28;20116;-64
2022/11/01 03:02:39;;;;;;;7.05;2.45;;;;;;;;;;5026688;28;20059;-64
2022/11/01 03:05:08;;;;;;;7.10;2.53;;;;;;;;;;5016986;28;20046;-64
2022/11/01 03:07:34;;;;;;;;;;;;;;;;;;5012971;28;20053;-64
2022/11/01 03:10:01;;;;;;;13.85;2.97;;;;;;;;;;5018512;28;19925;-64
2022/11/01 03:12:29;;;;;;;8.65;2.92;;;;;;;;;;5007314;28;20107;-64
2022/11/01 03:15:01;;;;;;;8.50;2.53;;;;;;;;;;5006410;28;20053;-64
2022/11/01 03:17:32;;;;;;;10.40;2.75;;;;;;;;;;5008098;28;20304;-64
2022/11/01 03:20:04;;;;;;;12.23;2.85;;;;;;;;;;5006681;28;20168;-64
2022/11/01 03:22:35;;;;;;;9.57;3.05;;;;;;;;;;5027216;28;20067;-64
2022/11/01 03:25:04;;;;;;;7.30;2.88;;;;;;;;;;5023708;28;20048;-64
2022/11/01 03:27:34;;;;;;;13.80;2.63;;;;;;;;;;5047372;28;20056;-64
2022/11/01 03:30:01;;;;;;;7.63;2.72;;;;;;;;;;5038757;28;20056;-64
2022/11/01 03:32:32;;;;;;;7.95;2.70;;;;;;;;;;5027151;28;20083;-64
2022/11/01 03:35:02;;;;;;;8.13;3.10;;;;;;;;;;5024713;28;20056;-64
2022/11/01 03:37:31;;;;;;;10.70;2.63;;;;;;;;;;5025165;28;20049;-64
2022/11/01 03:40:01;;;;;;;8.65;2.35;;;;;;;;;;5025539;28;20510;-64
2022/11/01 03:42:29;;;;;;;10.20;2.40;;;;;;;;;;5020194;28;20056;-64
2022/11/01 03:44:59;;;;;;;6.00;2.65;;;;;;;;;;5031173;28;20114;-64
2022/11/01 03:47:25;;;;;;;9.07;2.67;;;;;;;;;;5015985;28;20132;-65
2022/11/01 03:50:07;;;;;;;11.07;2.80;;;;;;;;;;5011292;28;20053;-64
2022/11/01 03:52:36;;;;;;;6.28;2.33;;;;;;;;;;5015762;28;20232;-64
2022/11/01 03:55:16;;;;;;;9.30;2.42;;;;;;;;;;5008043;28;20132;-64
2022/11/01 03:57:43;;;;;;;6.95;2.22;;;;;;;;;;5017470;28;20061;-64
2022/11/01 04:00:10;;;;;;;6.57;2.35;;;;;;;;;;5044040;28;20136;-64
2022/11/01 04:02:37;;;;;;;15.57;2.38;;;;;;;;;;5022168;28;20061;-64
2022/11/01 04:05:05;;;;;;;3.40;2.00;;;;;;;;;;5028071;28;20081;-64
2022/11/01 04:07:31;;;;;;;5.73;2.00;;;;;;;;;;5011901;28;20057;-64
2022/11/01 04:09:59;;;;;;;3.90;1.80;;;;;;;;;;5007722;28;20313;-64
2022/11/01 04:12:26;;;;;;;4.82;1.48;;;;;;;;;;5002701;28;20076;-64
2022/11/01 04:20:33;;;;;;;5.07;1.27;;;;;;;;;;5012806;28;20199;-64
2022/11/01 04:22:59;;;;;;;4.82;1.08;;;;;;;;;;5019411;28;20054;-64
2022/11/01 04:25:44;;;;;;;3.90;1.35;;;;;;;;;;5011557;28;20053;-64
2022/11/01 04:28:11;;;;;;;4.57;1.13;;;;;;;;;;4966396;28;20054;-64
2022/11/01 04:30:38;;;;;;;2.88;1.25;;;;;;;;;;5019524;28;20060;-64
2022/11/01 04:33:05;;;;;;;2.78;0.85;;;;;;;;;;5015903;28;20054;-64
2022/11/01 04:35:31;;;;;;;3.95;1.17;;;;;;;;;;5009654;28;20052;-64
2022/11/01 04:37:58;;;;;;;3.13;1.30;;;;;;;;;;5004227;28;20100;-64
2022/11/01 04:40:25;;;;;;;4.25;1.10;;;;;;;;;;5011671;28;20061;-64
2022/11/01 04:42:52;;;;;;;1.65;0.90;;;;;;;;;;5020099;28;20084;-64
2022/11/01 04:45:22;;;;;;;3.00;1.00;;;;;;;;;;5007003;28;20126;-64
2022/11/01 04:47:51;;;;;;;5.75;0.85;;;;;;;;;;5007510;28;20065;-64
2022/11/01 04:50:18;;;;;;;1.40;0.80;;;;;;;;;;5038185;28;20081;-64
2022/11/01 04:52:45;;;;;;;3.10;0.98;;;;;;;;;;5026400;28;20081;-64
2022/11/01 04:55:12;;;;;;;1.67;0.73;;;;;;;;;;5002865;28;20090;-64
2022/11/01 04:57:38;;;;;;;1.65;0.77;;;;;;;;;;5024140;28;20060;-64
2022/11/01 05:00:06;;;;;;;3.42;1.20;;;;;;;;;;5020394;28;20084;-64
2022/11/01 05:02:34;;;;;;;3.60;0.70;;;;;;;;;;5008058;28;20057;-64
2022/11/01 05:05:01;;;;;;;5.05;1.13;;;;;;;;;;4999606;28;20058;-64
2022/11/01 05:07:28;;;;;;;1.38;0.60;;;;;;;;;;5006802;28;20053;-64
2022/11/01 05:09:54;;;;;;;2.97;0.80;;;;;;;;;;5010205;28;20049;-64
2022/11/01 05:12:22;;;;;;;0.98;0.73;;;;;;;;;;5026352;28;20127;-64
2022/11/01 05:14:49;;;;;;;1.02;0.60;;;;;;;;;;5012664;28;20045;-64
2022/11/01 05:17:15;;;;;;;2.78;0.90;;;;;;;;;;5021923;28;20140;-64
2022/11/01 05:19:43;;;;;;;4.38;0.90;;;;;;;;;;5006175;28;20111;-64
2022/11/01 05:22:10;;;;;;;1.17;0.60;;;;;;;;;;5016981;28;20131;-64
2022/11/01 05:24:36;;;;;;;1.60;0.47;;;;;;;;;;5003067;28;20319;-64
2022/11/01 05:27:03;;;;;;;3.97;0.68;;;;;;;;;;5012061;28;20046;-64
2022/11/01 05:29:30;;;;;;;1.50;0.65;;;;;;;;;;5002836;28;20062;-64
2022/11/01 05:31:56;;;;;;;2.42;0.70;;;;;;;;;;5004743;28;20065;-64
2022/11/01 05:34:23;;;;;;;1.08;0.60;;;;;;;;;;5005257;28;20136;-64
2022/11/01 05:36:51;;;;;;;2.25;0.82;;;;;;;;;;5001052;28;20058;-64
2022/11/01 05:39:18;;;;;;;3.80;0.60;;;;;;;;;;5005554;28;20046;-64
2022/11/01 05:41:44;;;;;;;3.30;0.70;;;;;;;;;;5000471;28;20054;-64
2022/11/01 05:44:11;;;;;;;8.25;0.80;;;;;;;;;;5022083;28;20183;-64
2022/11/01 05:46:38;;;;;;;1.05;0.70;;;;;;;;;;5013869;28;20065;-64
2022/11/01 05:49:04;;;;;;;1.02;0.50;;;;;;;;;;5007086;28;20108;-64
2022/11/01 05:51:31;;;;;;;1.98;0.82;;;;;;;;;;5003077;28;20053;-64
2022/11/01 05:53:59;;;;;;;3.60;1.20;;;;;;;;;;5009266;28;20076;-63
2022/11/01 05:56:25;;;;;;;3.72;1.27;;;;;;;;;;5005059;28;20061;-64
2022/11/01 05:58:52;;;;;;;2.70;0.82;;;;;;;;;;5021561;28;20187;-64
2022/11/01 06:01:20;;;;;;;3.30;0.70;;;;;;;;;;5023811;28;20137;-64
2022/11/01 06:03:49;;;;;;;2.30;0.60;;;;;;;;;;5026284;28;20083;-64
2022/11/01 06:06:15;;;;;;;3.25;0.45;;;;;;;;;;5017773;28;20136;-64
2022/11/01 06:08:42;;;;;;;2.00;0.80;;;;;;;;;;5023690;28;20064;-64
2022/11/01 06:11:11;;;;;;;5.47;0.82;;;;;;;;;;5018811;28;20045;-64
2022/11/01 06:13:38;;;;;;;1.00;0.70;;;;;;;;;;5025389;28;20053;-64
2022/11/01 06:16:05;;;;;;;3.83;0.70;;;;;;;;;;5025581;28;20063;-64
2022/11/01 06:18:32;;;;;;;3.13;0.70;;;;;;;;;;5015766;28;20053;-64
2022/11/01 06:20:59;;;;;;;3.42;0.70;;;;;;;;;;5040634;28;20044;-64
2022/11/01 06:23:28;;;;;;;3.50;0.80;;;;;;;;;;5016656;28;20052;-64
2022/11/01 06:26:05;;;;;;;2.53;0.70;;;;;;;;;;5016643;28;20053;-64
2022/11/01 06:28:35;;;;;;;7.63;1.77;;;;;;;;;;5017068;28;20053;-64
2022/11/01 06:31:02;;;;;;;9.73;1.98;;;;;;;;;;5024755;28;20089;-64
2022/11/01 06:33:29;;;;;;;8.15;1.95;;;;;;;;;;5019729;28;20080;-64
2022/11/01 06:35:56;;;;;;;2.95;1.02;;;;;;;;;;5021791;28;20049;-64
2022/11/01 06:38:23;;;;;;;4.20;1.25;;;;;;;;;;5003502;28;20132;-64
2022/11/01 06:40:49;;;;;;;3.55;1.17;;;;;;;;;;5008781;28;20064;-64
2022/11/01 06:43:16;;;;;;;5.55;1.10;;;;;;;;;;5027799;28;20113;-64
2022/11/01 06:45:44;;;;;;;4.97;0.80;;;;;;;;;;5049429;28;20056;-64
2022/11/01 06:48:10;;;;;;;3.65;1.00;;;;;;;;;;5017011;28;20087;-64
2022/11/01 06:50:37;;;;;;;2.80;0.60;;;;;;;;;;5049071;28;20059;-64
2022/11/01 06:53:04;;;;;;;5.30;0.98;;;;;;;;;;5022121;28;20116;-64
2022/11/01 06:55:30;;;;;;;2.25;0.93;;;;;;;;;;5026027;28;20127;-64
2022/11/01 06:57:58;;;;;;;2.78;0.70;;;;;;;;;;5021148;28;20064;-64
2022/11/01 07:00:26;;;;;;;2.90;0.82;;;;;;;;;;5023643;28;20057;-64
2022/11/01 07:02:59;;;;;;;2.70;0.90;;;;;;;;;;5025079;28;20056;-64
2022/11/01 07:05:26;;;;;;;2.03;0.52;;;;;;;;;;5019414;28;20133;-64
2022/11/01 07:07:53;;;;;;;7.43;1.02;;;;;;;;;;5022744;28;20054;-64
2022/11/01 07:10:19;;;;;;;2.70;0.65;;;;;;;;;;5018035;28;20049;-64
2022/11/01 07:12:46;;;;;;;4.82;1.13;;;;;;;;;;5027837;28;20045;-64
2022/11/01 07:15:16;;;;;;;6.40;0.85;;;;;;;;;;5006896;28;20049;-64
2022/11/01 07:17:44;;;;;;;5.00;0.88;;;;;;;;;;4998689;28;20116;-64
2022/11/01 07:20:12;;;;;;;2.88;0.65;;;;;;;;;;5019353;28;20128;-64
2022/11/01 07:22:39;;;;;;;4.32;0.80;;;;;;;;;;5019901;28;20058;-64
2022/11/01 07:25:06;;;;;;;7.10;1.02;;;;;;;;;;5022186;28;20060;-64
2022/11/01 07:27:34;;;;;;;1.67;0.73;;;;;;;;;;5028490;28;20061;-64
2022/11/01 07:30:01;;;;;;;;;;;;;;;;;;5021139;28;20103;-64
2022/11/01 07:32:27;;;;;;;4.97;1.00;;;;;;;;;;5018911;28;19932;-64
2022/11/01 07:34:54;;;;;;;2.60;0.73;;;;;;;;;;5002912;28;20065;-64
2022/11/01 07:37:22;;;;;;;5.28;0.80;;;;;;;;;;5008709;28;20129;-64
2022/11/01 07:39:49;;;;;;;13.68;1.58;;;;;;;;;;5004866;28;20085;-64
2022/11/01 07:42:16;;;;;;;4.13;1.55;;;;;;;;;;5020451;28;20053;-64
2022/11/01 07:44:44;;;;;;;7.45;1.92;;;;;;;;;;5008668;28;20049;-64
2022/11/01 07:47:11;;;;;;;2.55;0.98;;;;;;;;;;5018968;28;20176;-64
2022/11/01 07:49:37;;;;;;;2.95;0.75;;;;;;;;;;5007529;28;20050;-64
2022/11/01 07:52:04;;;;;;;4.20;0.70;;;;;;;;;;5006090;28;20066;-64
2022/11/01 07:54:32;;;;;;;7.75;0.90;;;;;;;;;;5027831;28;20057;-64
2022/11/01 07:56:59;;;;;;;4.65;0.90;;;;;;;;;;5030339;28;20060;-64
2022/11/01 07:59:26;;;;;;;9.48;1.27;;;;;;;;;;5031038;28;20063;-64
2022/11/01 08:01:53;;;;;;;3.70;0.55;;;;;;;;;;5027360;28;20052;-64
2022/11/01 08:04:19;;;;;;;7.93;1.15;;;;;;;;;;5031169;28;20067;-64
2022/11/01 08:06:46;;;;;;;4.57;0.85;;;;;;;;;;5024581;28;20114;-64
2022/11/01 08:09:12;;;;;;;4.82;1.02;;;;;;;;;;5031283;28;20087;-64
2022/11/01 08:11:40;;;;;;;6.78;1.10;;;;;;;;;;5017912;28;20057;-64
2022/11/01 08:14:07;;;;;;;7.60;1.00;;;;;;;;;;5010826;28;20064;-64
2022/11/01 08:16:34;;;;;;;3.95;0.90;;;;;;;;;;5013813;28;20052;-64
2022/11/01 08:19:00;;;;;;;6.63;1.55;;;;;;;;;;5034209;28;20060;-64
2022/11/01 08:21:27;;;;;;;6.47;1.00;;;;;;;;;;5023234;28;20126;-64
2022/11/01 08:23:54;;;;;;;10.15;1.20;;;;;;;;;;5012074;28;20057;-64
2022/11/01 08:26:21;;;;;;;10.23;1.20;;;;;;;;;;5009754;28;20061;-64
2022/11/01 08:28:49;;;;;;;7.93;1.30;;;;;;;;;;5024185;28;20057;-64
2022/11/01 08:31:16;;;;;;;5.05;1.10;;;;;;;;;;5009399;28;20057;-64
2022/11/01 08:33:44;;;;;;;10.07;1.45;;;;;;;;;;5004740;28;20053;-64
2022/11/01 08:36:10;;;;;;;5.32;1.08;;;;;;;;;;5010396;28;20061;-64
2022/11/01 08:38:37;;;;;;;7.63;1.30;;;;;;;;;;5019586;28;20057;-64
2022/11/01 08:41:04;;;;;;;6.90;1.50;;;;;;;;;;5030120;28;20069;-64
2022/11/01 08:43:31;;;;;;;4.18;1.05;;;;;;;;;;5024481;28;20057;-64
2022/11/01 08:45:59;;;;;;;4.07;1.05;;;;;;;;;;5030117;28;20088;-64
2022/11/01 08:48:26;;;;;;;16.23;2.17;;;;;;;;;;5023711;28;20098;-63
2022/11/01 08:50:52;;;;;;;10.48;1.90;;;;;;;;;;5030245;28;20045;-63
2022/11/01 08:53:19;;;;;;;20.98;2.97;;;;;;;;;;5014047;28;20084;-64
2022/11/01 08:55:46;;;;;;;8.77;1.60;;;;;;;;;;5006051;28;20055;-63
2022/11/01 08:58:12;;;;;;;6.68;1.20;;;;;;;;;;5005774;28;20050;-64
2022/11/01 09:00:39;;;;;;;6.88;1.20;;;;;;;;;;5019344;28;20073;-64
2022/11/01 09:03:07;;;;;;;10.80;1.40;;;;;;;;;;5006854;28;20058;-64
2022/11/01 09:05:33;;;;;;;9.23;1.00;;;;;;;;;;5024955;28;20084;-63
2022/11/01 09:08:00;;;;;;;7.53;1.55;;;;;;;;;;5016023;28;20132;-63
2022/11/01 09:10:29;;;;;;;5.80;1.30;;;;;;;;;;5007137;28;20057;-63
2022/11/01 09:12:56;;;;;;;8.95;1.30;;;;;;;;;;5015500;28;20152;-63
2022/11/01 09:15:23;;;;;;;9.55;1.30;;;;;;;;;;5020549;28;20049;-63
2022/11/01 09:17:49;;;;;;;7.50;1.00;;;;;;;;;;5025892;28;20053;-63
2022/11/01 09:20:17;;;;;;;7.45;1.00;;;;;;;;;;5016154;28;20049;-64
2022/11/01 09:22:44;;;;;;;9.18;1.17;;;;;;;;;;5024596;28;20056;-64
2022/11/01 09:25:11;;;;;;;5.25;1.02;;;;;;;;;;5020922;28;20197;-63
2022/11/01 09:27:38;;;;;;;4.30;1.00;;;;;;;;;;5025767;28;20140;-63
2022/11/01 09:30:05;;;;;;;9.00;1.20;;;;;;;;;;5020132;28;20107;-63
2022/11/01 09:32:31;;;;;;;10.45;1.17;;;;;;;;;;5022872;28;20073;-63
2022/11/01 09:34:59;;;;;;;6.28;1.25;;;;;;;;;;5008944;28;20057;-63
2022/11/01 09:37:27;;;;;;;11.13;1.40;;;;;;;;;;5026958;28;20058;-64
2022/11/01 09:39:54;;;;;;;8.90;1.30;;;;;;;;;;5016595;28;20375;-63
2022/11/01 09:42:23;;;;;;;8.00;1.60;;;;;;;;;;5010028;28;20064;-63
2022/11/01 09:44:57;;;;;;;7.30;1.30;;;;;;;;;;5023377;28;20049;-63
2022/11/01 09:47:26;;;;;;;8.98;0.90;;;;;;;;;;5026918;28;20111;-65
2022/11/01 09:49:59;;;;;;;6.35;0.90;;;;;;;;;;5004285;28;20054;-65
2022/11/01 09:52:27;;;;;;;5.82;1.02;;;;;;;;;;5028856;28;20066;-63
2022/11/01 09:54:54;;;;;;;4.25;1.10;;;;;;;;;;5020424;28;20053;-63
2022/11/01 09:57:22;;;;;;;6.60;1.20;;;;;;;;;;5048008;28;20128;-63
2022/11/01 09:59:52;;;;;;;12.70;1.38;;;;;;;;;;5025112;28;20078;-63
2022/11/01 10:02:29;;;;;;;9.60;1.20;;;;;;;;;;5021031;28;20060;-63
2022/11/01 10:05:11;;;;;;;8.88;1.10;;;;;;;;;;5019635;28;20063;-63
2022/11/01 10:07:41;;;;;;;10.48;1.33;;;;;;;;;;5005104;28;20049;-63
2022/11/01 10:10:16;;;;;;;8.25;1.50;;;;;;;;;;5008678;28;20045;-63
2022/11/01 10:12:48;;;;;;;9.23;1.80;;;;;;;;;;5021138;28;20049;-64
2022/11/01 10:15:22;;;;;;;5.38;1.25;;;;;;;;;;5027876;28;20049;-63
2022/11/01 10:17:50;;;;;;;8.20;1.00;;;;;;;;;;5031457;28;20049;-63
2022/11/01 10:20:17;;;;;;;4.57;1.15;;;;;;;;;;5016515;28;20052;-63
2022/11/01 10:22:47;;;;;;;5.75;1.15;;;;;;;;;;5011221;28;20053;-63
2022/11/01 10:25:18;;;;;;;5.40;1.00;;;;;;;;;;5008651;28;20054;-63
2022/11/01 10:27:51;;;;;;;9.88;1.10;;;;;;;;;;5014470;28;20057;-63
2022/11/01 10:30:18;;;;;;;11.38;1.15;;;;;;;;;;5008180;28;20053;-63
2022/11/01 10:32:46;;;;;;;8.15;1.55;;;;;;;;;;5012086;28;20147;-63
2022/11/01 10:35:17;;;;;;;9.05;1.27;;;;;;;;;;5008343;28;20053;-63
2022/11/01 10:37:47;;;;;;;8.18;1.52;;;;;;;;;;5004905;28;20057;-64
2022/11/01 10:40:16;;;;;;;4.10;0.80;;;;;;;;;;5027734;28;20098;-64
2022/11/01 10:42:42;;;;;;;;;;;;;;;;;;5016296;28;20076;-63
2022/11/01 10:45:14;;;;;;;7.60;1.00;;;;;;;;;;5007865;28;19928;-63
2022/11/01 10:47:42;;;;;;;7.32;1.60;;;;;;;;;;5008915;28;20048;-64
2022/11/01 10:50:14;;;;;;;7.27;1.10;;;;;;;;;;5007973;28;20063;-63
2022/11/01 10:52:45;;;;;;;7.60;1.00;;;;;;;;;;5003224;28;20323;-64
2022/11/01 10:55:13;;;;;;;4.78;1.23;;;;;;;;;;5004757;28;20086;-64
2022/11/01 10:57:40;;;;;;;;;;;;;;;;;;5002805;28;20140;-63
2022/11/01 11:00:14;;;;;;;6.60;0.85;;;;;;;;;;5011809;28;19958;-63
2022/11/01 11:02:43;;;;;;;6.70;1.25;;;;;;;;;;5016749;28;20057;-64
2022/11/01 11:05:12;;;;;;;9.25;1.23;;;;;;;;;;5005949;28;20076;-63
2022/11/01 11:07:39;;;;;;;5.72;1.08;;;;;;;;;;5003861;28;20065;-64
2022/11/01 11:10:14;;;;;;;6.75;1.10;;;;;;;;;;5004655;28;20096;-63
2022/11/01 11:12:41;;;;;;;14.80;1.50;;;;;;;;;;5005999;28;20093;-64
2022/11/01 11:15:16;;;;;;;4.15;0.90;;;;;;;;;;4999241;28;20104;-64
2022/11/01 11:17:44;;;;;;;10.45;1.42;;;;;;;;;;5005353;28;20057;-64
2022/11/01 11:20:12;;;;;;;6.97;1.60;;;;;;;;;;5000237;28;20049;-64
2022/11/01 11:22:40;;;;;;;7.30;0.93;;;;;;;;;;5004446;28;20053;-64
2022/11/01 11:25:09;;;;;;;7.85;0.98;;;;;;;;;;5008904;28;20057;-64
2022/11/01 11:27:36;;;;;;;7.85;1.00;;;;;;;;;;5023710;28;20057;-64
2022/11/01 11:30:04;;;;;;;6.53;1.00;;;;;;;;;;5017077;28;20061;-64
2022/11/01 11:32:33;;;;;;;5.65;0.82;;;;;;;;;;5023948;28;20049;-64
2022/11/01 11:35:02;;;;;;;9.82;1.20;;;;;;;;;;5014618;28;20062;-64
2022/11/01 11:37:29;;;;;;;8.85;1.30;;;;;;;;;;5004910;28;20053;-64
2022/11/01 11:40:07;;;;;;;6.53;1.45;;;;;;;;;;5013543;28;20065;-64
2022/11/01 11:42:34;;;;;;;6.28;1.38;;;;;;;;;;5017519;28;20046;-64
2022/11/01 11:45:15;;;;;;;9.18;1.67;;;;;;;;;;5010815;28;20156;-65
2022/11/01 11:47:45;;;;;;;9.75;1.42;;;;;;;;;;5004609;28;20073;-64
2022/11/01 11:50:16;;;;;;;7.30;1.40;;;;;;;;;;5008569;28;20140;-64
2022/11/01 11:52:43;;;;;;;7.10;1.20;;;;;;;;;;5004732;28;20057;-64
2022/11/01 11:55:22;;;;;;;4.30;1.00;;;;;;;;;;4998031;28;20049;-64
2022/11/01 11:57:50;;;;;;;5.40;1.25;;;;;;;;;;5004023;28;20046;-65
2022/11/01 12:00:22;;;;;;;11.07;1.70;;;;;;;;;;5010605;28;20042;-65
2022/11/01 12:02:50;;;;;;;8.30;1.33;;;;;;;;;;5004127;28;20149;-64
2022/11/01 12:05:17;;;;;;;9.98;1.20;;;;;;;;;;5015911;28;20049;-64
2022/11/01 12:07:45;;;;;;;8.68;1.10;;;;;;;;;;5007860;28;20160;-65
2022/11/01 12:10:28;;;;;;;6.47;1.27;;;;;;;;;;5003071;28;20106;-65
2022/11/01 12:12:55;;;;;;;12.07;1.20;;;;;;;;;;5007067;28;20078;-65
2022/11/01 12:15:25;;;;;;;6.55;1.20;;;;;;;;;;5019975;28;20052;-65
2022/11/01 12:17:53;;;;;;;12.40;1.27;;;;;;;;;;5010011;28;20045;-64
2022/11/01 12:20:20;;;;;;;7.95;1.10;;;;;;;;;;5015257;28;20120;-65
2022/11/01 12:22:49;;;;;;;5.03;1.25;;;;;;;;;;5040179;28;20061;-64
2022/11/01 12:25:19;;;;;;;7.05;1.20;;;;;;;;;;5013008;28;20131;-64
2022/11/01 12:27:52;;;;;;;9.40;1.05;;;;;;;;;;5003414;28;20125;-65
2022/11/01 12:30:19;;;;;;;10.77;1.35;;;;;;;;;;5026739;28;20060;-64
2022/11/01 12:32:49;;;;;;;9.30;1.10;;;;;;;;;;5006108;28;20104;-64
2022/11/01 12:35:29;;;;;;;8.68;1.30;;;;;;;;;;5022885;28;20049;-64
2022/11/01 12:38:01;;;;;;;10.25;1.10;;;;;;;;;;5005609;28;20056;-64
2022/11/01 12:40:29;;;;;;;4.25;0.95;;;;;;;;;;5024427;28;20053;-64
2022/11/01 12:42:58;;;;;;;6.95;0.88;;;;;;;;;;5020605;28;20045;-64
2022/11/01 12:45:27;;;;;;;5.25;0.90;;;;;;;;;;5010672;28;20049;-64
2022/11/01 12:47:55;;;;;;;7.00;1.13;;;;;;;;;;5001644;28;20107;-64
2022/11/01 12:50:23;;;;;;;6.47;1.00;;;;;;;;;;5023211;28;20143;-64
2022/11/01 12:52:55;;;;;;;2.07;0.80;;;;;;;;;;5014179;28;20155;-64
2022/11/01 12:55:26;;;;;;;6.88;0.80;;;;;;;;;;5024650;28;20107;-64
2022/11/01 12:57:54;;;;;;;3.22;0.98;;;;;;;;;;5016216;28;20046;-64
2022/11/01 13:00:21;;;;;;;5.75;0.90;;;;;;;;;;5010346;28;20053;-65
2022/11/01 13:02:57;;;;;;;7.30;1.05;;;;;;;;;;5014545;28;20067;-65
2022/11/01 13:05:28;;;;;;;10.10;0.95;;;;;;;;;;5035074;28;20060;-65
2022/11/01 13:08:04;;;;;;;3.60;0.82;;;;;;;;;;5028969;28;20060;-65
2022/11/01 13:10:32;;;;;;;6.57;0.98;;;;;;;;;;5032965;28;20053;-65
2022/11/01 13:13:04;;;;;;;4.82;0.80;;;;;;;;;;5026954;28;20044;-65
2022/11/01 13:15:32;;;;;;;5.65;1.15;;;;;;;;;;5032522;28;20057;-65
2022/11/01 13:17:58;;;;;;;;;;;;;;;;;;5023567;28;20115;-65
2022/11/01 13:20:29;;;;;;;10.63;1.23;;;;;;;;;;5018895;28;19931;-64
2022/11/01 13:23:00;;;;;;;9.05;1.50;;;;;;;;;;5023328;28;20064;-65
2022/11/01 13:25:31;;;;;;;4.68;1.02;;;;;;;;;;5008949;28;20153;-64
2022/11/01 13:28:04;;;;;;;7.00;1.05;;;;;;;;;;5008866;28;20041;-65
2022/11/01 13:30:32;;;;;;;7.75;1.00;;;;;;;;;;5022150;28;20199;-64
2022/11/01 13:32:58;;;;;;;;;;;;;;;;;;5010255;28;20064;-65
2022/11/01 13:35:37;;;;;;;5.68;1.05;;;;;;;;;;5018453;28;19928;-65
2022/11/01 13:38:07;;;;;;;5.95;1.10;;;;;;;;;;5028734;28;20140;-64
2022/11/01 13:40:37;;;;;;;8.13;1.00;;;;;;;;;;5022998;28;20057;-65
2022/11/01 13:43:08;;;;;;;8.27;1.00;;;;;;;;;;5026387;28;20057;-65
2022/11/01 13:45:57;;;;;;;5.90;0.90;;;;;;;;;;5019117;28;20522;-65
2022/11/01 13:48:23;;;;;;;;;;;;;;;;;;5028871;28;20049;-65
2022/11/01 13:51:05;;;;;;;3.63;0.80;;;;;;;;;;5006941;28;19921;-65
2022/11/01 13:53:34;;;;;;;2.50;0.93;;;;;;;;;;5001929;28;20076;-65
2022/11/01 13:56:07;;;;;;;5.60;0.65;;;;;;;;;;5014077;28;20136;-65
2022/11/01 13:58:33;;;;;;;3.95;0.73;;;;;;;;;;5005758;28;20064;-65
2022/11/01 14:01:15;;;;;;;7.07;1.00;;;;;;;;;;5003219;28;20054;-65
2022/11/01 14:03:45;;;;;;;4.00;0.82;;;;;;;;;;5007568;28;20088;-64
2022/11/01 14:06:25;;;;;;;4.88;0.80;;;;;;;;;;5002029;28;20049;-64
2022/11/01 14:09:11;;;;;;;7.90;1.02;;;;;;;;;;5009968;28;20132;-64
2022/11/01 14:11:47;;;;;;;5.80;0.90;;;;;;;;;;5007244;28;20060;-64
2022/11/01 14:14:42;;;;;;;6.80;1.02;;;;;;;;;;5017307;28;20053;-64
2022/11/01 14:17:25;;;;;;;5.18;0.80;;;;;;;;;;5014726;28;20057;-64
2022/11/01 14:20:14;;;;;;;4.28;0.73;;;;;;;;;;5017375;28;20057;-64
2022/11/01 14:22:42;;;;;;;;;;;;;;;;;;5022038;28;20049;-64
2022/11/01 14:25:23;;;;;;;7.13;0.70;;;;;;;;;;5005123;28;19968;-64
2022/11/01 14:28:11;;;;;;;7.93;0.80;;;;;;;;;;5022065;28;20049;-64
2022/11/01 14:30:41;;;;;;;4.75;0.88;;;;;;;;;;5007542;28;20081;-64
2022/11/01 14:33:12;;;;;;;4.97;0.60;;;;;;;;;;5009232;28;20049;-64
2022/11/01 14:35:39;;;;;;;3.80;0.82;;;;;;;;;;5010129;28;20061;-64
2022/11/01 14:38:07;;;;;;;3.78;1.02;;;;;;;;;;5019191;28;21336;-66
2022/11/01 14:40:36;;;;;;;6.20;1.45;;;;;;;;;;5012628;28;20065;-65
2022/11/01 14:43:17;;;;;;;10.88;1.58;;;;;;;;;;4999810;28;20065;-64
2022/11/01 14:45:45;;;;;;;7.55;1.15;;;;;;;;;;5005002;28;20053;-64
2022/11/01 14:48:16;;;;;;;5.90;0.70;;;;;;;;;;5000150;28;20061;-64
2022/11/01 14:50:46;;;;;;;2.95;0.80;;;;;;;;;;5005247;28;20054;-64
2022/11/01 14:53:16;;;;;;;3.25;0.88;;;;;;;;;;5010214;28;20061;-64
2022/11/01 14:55:43;;;;;;;3.22;0.80;;;;;;;;;;5005736;28;20046;-65
2022/11/01 14:58:18;;;;;;;4.05;0.75;;;;;;;;;;5020162;28;20060;-64
2022/11/01 15:00:44;;;;;;;6.65;1.10;;;;;;;;;;5026107;28;20100;-64